createdAt,value
2018-04-28T00:01:06.442Z,13.10
2018-04-28T00:03:33.858Z,13.10
2018-04-28T00:06:01.282Z,13.10
2018-04-28T00:08:33.358Z,13.00
2018-04-28T00:11:00.834Z,13.00
2018-04-28T00:13:32.295Z,13.00
2018-04-28T00:16:00.646Z,13.00
2018-04-28T00:18:28.838Z,12.90
2018-04-28T00:20:57.051Z,12.90
2018-04-28T00:23:25.342Z,12.90
2018-04-28T00:26:01.418Z,12.80
2018-04-28T00:28:53.567Z,12.80
2018-04-28T00:31:21.037Z,12.70
2018-04-28T00:33:57.217Z,12.70
2018-04-28T00:39:38.902Z,12.70
2018-04-28T00:42:08.163Z,12.70
2018-04-28T00:44:38.414Z,12.70
2018-04-28T00:47:06.818Z,12.70
2018-04-28T00:49:44.674Z,12.70
2018-04-28T00:52:12.863Z,12.60
2018-04-28T00:54:46.015Z,12.60
2018-04-28T01:11:28.278Z,12.50
2018-04-28T01:14:01.215Z,12.50
2018-04-28T01:16:29.542Z,12.40
2018-04-28T01:19:17.325Z,12.30
2018-04-28T01:21:44.741Z,12.30
2018-04-28T01:24:28.747Z,12.30
2018-04-28T01:27:25.707Z,12.30
2018-04-28T01:29:55.837Z,12.20
2018-04-28T01:32:24.842Z,12.20
2018-04-28T01:35:08.722Z,12.20
2018-04-28T01:37:42.147Z,12.20
2018-04-28T01:40:11.458Z,12.20
2018-04-28T01:42:48.462Z,12.30
2018-04-28T01:51:39.742Z,12.30
2018-04-28T01:54:23.066Z,12.30
2018-04-28T02:00:06.422Z,12.40
2018-04-28T02:02:39.355Z,12.40
2018-04-28T02:05:23.294Z,12.40
2018-04-28T02:07:50.821Z,12.50
2018-04-28T02:10:30.015Z,12.40
2018-04-28T02:12:57.482Z,12.50
2018-04-28T02:15:25.682Z,12.50
2018-04-28T02:17:58.770Z,12.60
2018-04-28T02:20:27.010Z,12.50
2018-04-28T02:23:06.302Z,12.50
2018-04-28T02:25:43.394Z,12.50
2018-04-28T02:28:17.578Z,12.50
2018-04-28T02:30:51.939Z,12.50
2018-04-28T02:33:20.942Z,12.50
2018-04-28T02:35:50.935Z,12.40
2018-04-28T02:38:32.090Z,12.40
2018-04-28T02:44:05.343Z,12.20
2018-04-28T02:46:38.755Z,12.10
2018-04-28T02:49:12.870Z,12.10
2018-04-28T02:51:44.846Z,12.00
2018-04-28T02:54:13.679Z,12.00
2018-04-28T02:56:48.799Z,12.00
2018-04-28T02:59:19.903Z,12.00
2018-04-28T03:01:51.292Z,11.90
2018-04-28T03:07:38.198Z,11.90
2018-04-28T03:10:09.137Z,11.80
2018-04-28T03:12:36.606Z,11.80
2018-04-28T03:15:04.071Z,11.70
2018-04-28T03:17:40.513Z,11.70
2018-04-28T03:20:14.706Z,11.70
2018-04-28T03:22:43.954Z,11.70
2018-04-28T03:25:12.882Z,11.70
2018-04-28T03:27:41.870Z,11.70
2018-04-28T03:30:10.851Z,11.70
2018-04-28T03:32:40.907Z,11.60
2018-04-28T03:35:09.943Z,11.60
2018-04-28T03:37:40.211Z,11.60
2018-04-28T03:40:23.285Z,11.60
2018-04-28T03:42:58.726Z,11.60
2018-04-28T03:45:27.064Z,11.60
2018-04-28T03:48:07.339Z,11.60
2018-04-28T03:50:37.542Z,11.50
2018-04-28T03:53:04.939Z,11.50
2018-04-28T03:55:32.356Z,11.50
2018-04-28T03:58:11.778Z,11.40
2018-04-28T04:00:51.207Z,11.40
2018-04-28T04:03:19.609Z,11.40
2018-04-28T04:08:51.102Z,11.40
2018-04-28T04:11:31.267Z,11.30
2018-04-28T04:17:14.426Z,11.30
2018-04-28T04:19:57.742Z,11.30
2018-04-28T04:25:46.746Z,11.20
2018-04-28T04:28:17.793Z,11.20
2018-04-28T04:33:58.485Z,11.20
2018-04-28T04:36:29.631Z,11.20
2018-04-28T04:39:11.950Z,11.20
2018-04-28T04:41:43.414Z,11.20
2018-04-28T04:44:20.634Z,11.20
2018-04-28T04:49:56.831Z,11.20
2018-04-28T04:52:45.078Z,11.20
2018-04-28T04:55:20.514Z,11.20
2018-04-28T05:00:53.781Z,11.30
2018-04-28T05:03:23.914Z,11.30
2018-04-28T05:06:03.359Z,11.40
2018-04-28T05:11:43.053Z,11.40
2018-04-28T05:14:16.544Z,11.40
2018-04-28T05:17:06.362Z,11.50
2018-04-28T05:19:48.342Z,11.50
2018-04-28T05:22:28.367Z,11.50
2018-04-28T05:24:56.707Z,11.50
2018-04-28T05:27:28.738Z,11.60
2018-04-28T05:54:39.546Z,12.00
2018-04-28T05:57:08.998Z,12.00
2018-04-28T05:59:47.201Z,12.10
2018-04-28T06:15:58.169Z,12.60
2018-04-28T06:18:34.439Z,12.60
2018-04-28T06:21:01.858Z,12.70
2018-04-28T06:23:29.276Z,12.70
2018-04-28T06:25:56.747Z,12.80
2018-04-28T06:28:24.222Z,12.90
2018-04-28T06:30:51.694Z,13.00
2018-04-28T06:33:19.161Z,13.00
2018-04-28T06:35:47.926Z,13.00
2018-04-28T06:38:15.357Z,13.10
2018-04-28T06:40:42.806Z,13.20
2018-04-28T06:43:10.222Z,13.30
2018-04-28T06:45:37.734Z,13.30
2018-04-28T06:48:05.155Z,13.40
2018-04-28T06:50:32.681Z,13.40
2018-04-28T06:53:00.107Z,13.40
2018-04-28T06:55:27.542Z,13.50
2018-04-28T06:57:54.966Z,13.50
2018-04-28T07:00:23.166Z,13.70
2018-04-28T07:02:50.590Z,13.60
2018-04-28T07:05:18.110Z,13.70
2018-04-28T07:07:45.536Z,13.70
2018-04-28T07:10:12.966Z,13.70
2018-04-28T07:12:40.418Z,13.70
2018-04-28T07:15:07.848Z,13.80
2018-04-28T07:17:35.366Z,13.80
2018-04-28T07:20:02.834Z,13.80
2018-04-28T07:22:30.261Z,13.90
2018-04-28T07:24:58.446Z,13.90
2018-04-28T07:27:25.879Z,13.90
2018-04-28T07:29:53.323Z,14.00
2018-04-28T07:32:20.797Z,14.10
2018-04-28T07:34:48.218Z,14.20
2018-04-28T07:37:16.450Z,14.30
2018-04-28T07:39:43.870Z,14.30
2018-04-28T07:42:11.306Z,14.40
2018-04-28T07:44:38.775Z,14.40
2018-04-28T07:47:06.273Z,14.50
2018-04-28T07:49:33.693Z,14.50
2018-04-28T07:52:01.127Z,14.60
2018-04-28T07:54:29.310Z,14.70
2018-04-28T07:56:58.246Z,14.70
2018-04-28T07:59:25.748Z,14.70
2018-04-28T08:01:53.157Z,14.80
2018-04-28T08:04:20.569Z,14.90
2018-04-28T08:06:47.993Z,14.90
2018-04-28T08:09:16.223Z,15.10
2018-04-28T08:11:43.659Z,15.10
2018-04-28T08:14:11.843Z,15.40
2018-04-28T08:16:40.030Z,15.40
2018-04-28T08:19:08.209Z,15.40
2018-04-28T08:21:36.407Z,15.30
2018-04-28T08:24:04.590Z,15.30
2018-04-28T08:26:32.893Z,15.30
2018-04-28T08:29:01.211Z,15.30
2018-04-28T08:31:28.675Z,15.40
2018-04-28T08:33:56.090Z,15.60
2018-04-28T08:36:23.520Z,15.70
2018-04-28T08:38:50.934Z,15.80
2018-04-28T08:41:18.367Z,16.10
2018-04-28T08:43:45.823Z,16.40
2018-04-28T08:46:13.234Z,16.60
2018-04-28T08:48:42.168Z,17.00
2018-04-28T08:51:10.421Z,17.00
2018-04-28T08:53:37.858Z,17.00
2018-04-28T08:56:05.279Z,16.90
2018-04-28T08:58:32.795Z,16.80
2018-04-28T09:01:01.899Z,16.80
2018-04-28T09:03:29.321Z,16.70
2018-04-28T09:05:57.533Z,16.80
2018-04-28T09:08:25.737Z,16.80
2018-04-28T09:10:53.215Z,16.70
2018-04-28T09:13:20.639Z,16.80
2018-04-28T09:15:48.156Z,17.00
2018-04-28T09:18:15.619Z,17.10
2018-04-28T09:20:43.094Z,17.30
2018-04-28T09:23:10.596Z,17.50
2018-04-28T09:25:38.034Z,17.50
2018-04-28T09:28:05.467Z,17.50
2018-04-28T09:30:33.650Z,17.60
2018-04-28T09:33:01.892Z,17.60
2018-04-28T09:35:29.298Z,17.60
2018-04-28T09:37:57.492Z,18.00
2018-04-28T09:40:25.003Z,18.00
2018-04-28T09:42:52.479Z,18.10
2018-04-28T09:45:19.889Z,18.20
2018-04-28T09:47:47.406Z,18.40
2018-04-28T09:50:15.598Z,18.60
2018-04-28T09:52:43.027Z,18.60
2018-04-28T09:55:10.449Z,18.70
2018-04-28T09:57:37.886Z,18.90
2018-04-28T10:00:23.166Z,19.10
2018-04-28T10:02:51.357Z,19.20
2018-04-28T10:05:19.572Z,19.30
2018-04-28T10:07:47.043Z,19.30
2018-04-28T10:10:14.507Z,19.60
2018-04-28T10:12:41.989Z,19.80
2018-04-28T10:15:09.358Z,19.90
2018-04-28T10:17:36.823Z,20.20
2018-04-28T10:20:04.326Z,20.40
2018-04-28T10:22:32.437Z,20.90
2018-04-28T10:25:00.658Z,21.20
2018-04-28T10:27:28.132Z,21.20
2018-04-28T10:29:55.555Z,21.40
2018-04-28T10:32:22.979Z,21.50
2018-04-28T10:34:50.439Z,21.20
2018-04-28T10:37:17.855Z,21.10
2018-04-28T10:39:45.370Z,20.90
2018-04-28T10:42:12.794Z,21.00
2018-04-28T10:44:41.030Z,21.00
2018-04-28T10:47:08.446Z,20.90
2018-04-28T10:49:36.791Z,21.00
2018-04-28T10:52:04.950Z,21.40
2018-04-28T10:54:33.166Z,21.70
2018-04-28T10:57:00.592Z,21.70
2018-04-28T10:59:29.538Z,22.60
2018-04-28T11:01:57.010Z,22.60
2018-04-28T11:04:24.430Z,23.10
2018-04-28T11:06:51.951Z,23.40
2018-04-28T11:09:19.423Z,23.70
2018-04-28T11:11:46.847Z,24.00
2018-04-28T11:14:14.362Z,24.20
2018-04-28T11:16:41.826Z,24.60
2018-04-28T11:19:09.262Z,25.00
2018-04-28T11:21:37.449Z,25.00
2018-04-28T11:24:05.694Z,25.00
2018-04-28T11:26:33.113Z,24.90
2018-04-28T11:29:01.322Z,24.80
2018-04-28T11:31:28.803Z,24.80
2018-04-28T11:33:56.266Z,24.40
2018-04-28T11:36:23.681Z,24.20
2018-04-28T11:38:51.211Z,24.30
2018-04-28T11:41:18.630Z,24.10
2018-04-28T11:43:46.143Z,23.80
2018-04-28T11:46:13.559Z,23.60
2018-04-28T11:48:41.049Z,23.50
2018-04-28T11:51:08.555Z,23.60
2018-04-28T11:53:36.127Z,23.70
2018-04-28T11:56:03.550Z,23.60
2018-04-28T11:58:31.075Z,23.30
2018-04-28T12:00:58.497Z,23.10
2018-04-28T12:03:25.922Z,23.20
2018-04-28T12:05:53.355Z,23.40
2018-04-28T12:08:21.547Z,23.40
2018-04-28T12:10:49.751Z,23.30
2018-04-28T12:13:17.219Z,23.30
2018-04-28T12:15:44.646Z,23.10
2018-04-28T12:18:12.162Z,22.70
2018-04-28T12:20:39.582Z,22.40
2018-04-28T12:23:07.003Z,22.00
2018-04-28T12:25:34.463Z,21.60
2018-04-28T12:28:01.883Z,21.30
2018-04-28T12:30:29.306Z,21.00
2018-04-28T12:32:56.722Z,20.80
2018-04-28T12:35:24.247Z,20.70
2018-04-28T12:37:51.712Z,20.60
2018-04-28T12:40:19.142Z,20.60
2018-04-28T12:42:46.650Z,20.60
2018-04-28T12:45:14.083Z,20.60
2018-04-28T12:47:41.498Z,20.60
2018-04-28T12:50:08.930Z,20.50
2018-04-28T12:52:36.430Z,20.60
2018-04-28T12:55:03.898Z,20.70
2018-04-28T12:57:31.337Z,20.70
2018-04-28T12:59:58.839Z,20.90
2018-04-28T13:02:26.258Z,21.00
2018-04-28T13:04:53.690Z,21.00
2018-04-28T13:07:21.111Z,21.10
2018-04-28T13:09:48.534Z,21.30
2018-04-28T13:12:15.959Z,21.60
2018-04-28T13:14:44.166Z,22.10
2018-04-28T13:17:11.587Z,22.10
2018-04-28T13:19:39.826Z,22.90
2018-04-28T13:22:07.298Z,22.90
2018-04-28T13:24:34.732Z,23.50
2018-04-28T13:27:02.320Z,24.00
2018-04-28T13:29:29.662Z,24.20
2018-04-28T13:31:57.175Z,24.10
2018-04-28T13:34:24.602Z,23.90
2018-04-28T13:36:52.022Z,23.40
2018-04-28T13:39:19.486Z,23.10
2018-04-28T13:41:46.902Z,22.70
2018-04-28T13:44:14.318Z,22.40
2018-04-28T13:46:41.747Z,22.10
2018-04-28T13:49:09.159Z,21.80
2018-04-28T13:51:36.626Z,21.70
2018-04-28T13:54:04.094Z,21.60
2018-04-28T13:56:31.570Z,21.50
2018-04-28T13:58:59.406Z,21.50
2018-04-28T14:01:26.930Z,21.40
2018-04-28T14:03:54.353Z,21.50
2018-04-28T14:06:21.769Z,21.50
2018-04-28T14:08:49.189Z,21.60
2018-04-28T14:11:17.378Z,21.70
2018-04-28T14:13:45.571Z,21.70
2018-04-28T14:16:13.798Z,21.60
2018-04-28T14:18:41.252Z,21.60
2018-04-28T14:21:08.638Z,21.50
2018-04-28T14:23:36.058Z,21.30
2018-04-28T14:26:04.250Z,21.10
2018-04-28T14:28:32.466Z,21.00
2018-04-28T14:30:59.935Z,21.00
2018-04-28T14:33:27.355Z,20.90
2018-04-28T14:35:54.782Z,20.80
2018-04-28T14:38:22.203Z,20.70
2018-04-28T14:40:49.718Z,20.70
2018-04-28T14:43:17.188Z,20.60
2018-04-28T14:45:44.614Z,20.60
2018-04-28T14:48:12.034Z,20.50
2018-04-28T14:50:39.463Z,20.40
2018-04-28T14:53:07.690Z,20.20
2018-04-28T14:55:35.246Z,20.20
2018-04-28T14:58:02.718Z,20.10
2018-04-28T15:00:30.146Z,20.00
2018-04-28T15:02:57.662Z,19.90
2018-04-28T15:05:25.086Z,19.80
2018-04-28T15:07:52.501Z,19.80
2018-04-28T15:10:19.966Z,19.70
2018-04-28T15:12:47.392Z,19.60
2018-04-28T15:15:14.810Z,19.60
2018-04-28T15:17:42.226Z,19.50
2018-04-28T15:20:09.751Z,19.50
2018-04-28T15:22:37.216Z,19.40
2018-04-28T15:25:04.643Z,19.40
2018-04-28T15:27:32.153Z,19.40
2018-04-28T15:29:59.625Z,19.40
2018-04-28T15:32:27.094Z,19.40
2018-04-28T15:34:54.542Z,19.30
2018-04-28T15:37:22.038Z,19.30
2018-04-28T15:39:49.503Z,19.30
2018-04-28T15:42:16.926Z,19.20
2018-04-28T15:44:44.526Z,19.20
2018-04-28T15:47:11.874Z,19.30
2018-04-28T15:49:39.294Z,19.30
2018-04-28T15:52:06.718Z,19.30
2018-04-28T15:54:34.938Z,19.30
2018-04-28T15:57:02.366Z,19.30
2018-04-28T15:59:29.781Z,19.30
2018-04-28T16:01:57.215Z,19.40
2018-04-28T16:04:25.402Z,19.30
2018-04-28T16:06:53.615Z,19.20
2018-04-28T16:09:21.141Z,19.20
2018-04-28T16:11:48.562Z,19.20
2018-04-28T16:14:16.027Z,19.30
2018-04-28T16:16:43.450Z,19.30
2018-04-28T16:19:11.822Z,19.30
2018-04-28T16:21:39.269Z,19.20
2018-04-28T16:24:06.692Z,19.10
2018-04-28T16:26:34.199Z,19.10
2018-04-28T16:29:02.521Z,19.00
2018-04-28T16:31:29.947Z,18.90
2018-04-28T16:33:57.426Z,18.80
2018-04-28T16:36:24.850Z,18.80
2018-04-28T16:38:52.271Z,18.70
2018-04-28T16:41:19.703Z,18.60
2018-04-28T16:43:47.884Z,18.50
2018-04-28T16:46:15.395Z,18.50
2018-04-28T16:48:42.861Z,18.50
2018-04-28T16:51:10.375Z,18.50
2018-04-28T16:53:37.710Z,18.40
2018-04-28T16:56:05.138Z,18.30
2018-04-28T16:58:33.350Z,18.20
2018-04-28T17:01:00.823Z,18.20
2018-04-28T17:03:28.242Z,18.20
2018-04-28T17:05:55.675Z,18.20
2018-04-28T17:08:23.135Z,18.20
2018-04-28T17:10:50.574Z,18.20
2018-04-28T17:13:18.790Z,18.10
2018-04-28T17:15:46.263Z,18.10
2018-04-28T17:18:13.730Z,18.10
2018-04-28T17:20:41.142Z,18.10
2018-04-28T17:23:08.666Z,18.10
2018-04-28T17:25:36.239Z,18.10
2018-04-28T17:28:03.718Z,18.00
2018-04-28T17:30:31.182Z,18.00
2018-04-28T17:32:58.614Z,18.00
2018-04-28T17:35:26.121Z,18.00
2018-04-28T17:37:53.552Z,17.90
2018-04-28T17:40:21.062Z,17.90
2018-04-28T17:42:48.504Z,17.90
2018-04-28T17:45:15.999Z,17.80
2018-04-28T17:47:43.430Z,17.80
2018-04-28T17:50:10.845Z,17.70
2018-04-28T17:52:38.307Z,17.60
2018-04-28T17:55:05.742Z,17.60
2018-04-28T17:57:33.243Z,17.50
2018-04-28T18:00:00.611Z,17.40
2018-04-28T18:02:28.042Z,17.40
2018-04-28T18:04:55.553Z,17.30
2018-04-28T18:07:23.036Z,17.20
2018-04-28T18:09:50.494Z,17.20
2018-04-28T18:12:17.963Z,17.20
2018-04-28T18:14:45.382Z,17.10
2018-04-28T18:17:12.801Z,17.10
2018-04-28T18:19:40.273Z,17.00
2018-04-28T18:22:07.693Z,16.90
2018-04-28T18:24:36.627Z,16.70
2018-04-28T18:27:04.806Z,16.60
2018-04-28T18:29:32.998Z,16.50
2018-04-28T18:32:01.203Z,16.50
2018-04-28T18:34:28.625Z,16.50
2018-04-28T18:36:56.146Z,16.40
2018-04-28T18:39:23.566Z,16.40
2018-04-28T18:41:50.990Z,16.40
2018-04-28T18:44:18.450Z,16.30
2018-04-28T18:46:45.871Z,16.20
2018-04-28T18:49:13.293Z,16.10
2018-04-28T18:51:40.837Z,16.10
2018-04-28T18:54:08.183Z,16.00
2018-04-28T18:56:37.134Z,15.80
2018-04-28T18:59:04.558Z,15.80
2018-04-28T19:01:31.974Z,15.80
2018-04-28T19:03:59.405Z,15.70
2018-04-28T19:06:27.585Z,15.60
2018-04-28T19:08:55.014Z,15.60
2018-04-28T19:11:22.426Z,15.60
2018-04-28T19:13:49.850Z,15.60
2018-04-28T19:16:17.289Z,15.60
2018-04-28T19:18:44.717Z,15.60
2018-04-28T19:21:12.132Z,15.60
2018-04-28T19:23:39.613Z,15.60
2018-04-28T19:26:07.034Z,15.70
2018-04-28T19:28:34.553Z,15.60
2018-04-28T19:31:01.984Z,15.60
2018-04-28T19:33:29.487Z,15.60
2018-04-28T19:35:56.910Z,15.60
2018-04-28T19:38:25.837Z,15.60
2018-04-28T19:40:54.030Z,15.60
2018-04-28T19:43:22.238Z,15.60
2018-04-28T19:45:49.666Z,15.60
2018-04-28T19:48:17.179Z,15.60
2018-04-28T19:50:44.602Z,15.60
2018-04-28T19:53:12.022Z,15.60
2018-04-28T19:55:39.487Z,15.60
2018-04-28T19:58:06.905Z,15.60
2018-04-28T20:00:34.325Z,15.50
2018-04-28T20:03:01.746Z,15.50
2018-04-28T20:05:29.262Z,15.50
2018-04-28T20:07:56.680Z,15.40
2018-04-28T20:10:24.203Z,15.40
2018-04-28T20:12:51.678Z,15.40
2018-04-28T20:15:19.094Z,15.40
2018-04-28T20:17:46.612Z,15.40
2018-04-28T20:20:14.038Z,15.40
2018-04-28T20:25:58.860Z,15.30
2018-04-28T20:28:26.269Z,15.20
2018-04-28T20:30:53.731Z,15.20
2018-04-28T20:33:21.200Z,15.10
2018-04-28T20:35:48.713Z,15.10
2018-04-28T20:38:16.819Z,15.00
2018-04-28T20:40:44.238Z,15.00
2018-04-28T20:43:11.667Z,15.00
2018-04-28T20:45:39.855Z,15.00
2018-04-28T20:48:08.038Z,15.00
2018-04-28T20:50:36.259Z,14.90
2018-04-28T20:53:03.678Z,14.90
2018-04-28T20:55:31.097Z,14.90
2018-04-28T20:57:58.514Z,15.00
2018-04-28T21:00:26.031Z,14.90
2018-04-28T21:02:53.507Z,14.90
2018-04-28T21:05:20.930Z,14.90
2018-04-28T21:07:48.442Z,14.90
2018-04-28T21:10:15.866Z,14.80
2018-04-28T21:12:43.293Z,14.80
2018-04-28T21:15:10.749Z,14.80
2018-04-28T21:17:38.202Z,14.80
2018-04-28T21:20:06.374Z,14.70
2018-04-28T21:22:34.570Z,14.70
2018-04-28T21:25:02.774Z,14.70
2018-04-28T21:27:30.198Z,14.60
2018-04-28T21:29:57.622Z,14.60
2018-04-28T21:32:25.049Z,14.50
2018-04-28T21:34:52.563Z,14.50
2018-04-28T21:37:19.981Z,14.50
2018-04-28T21:39:47.502Z,14.50
2018-04-28T21:42:14.966Z,14.50
2018-04-28T21:44:42.382Z,14.40
2018-04-28T21:47:09.914Z,14.40
2018-04-28T21:49:37.380Z,14.40
2018-04-28T21:52:04.850Z,14.30
2018-04-28T21:54:32.314Z,14.30
2018-04-28T21:56:59.783Z,14.20
2018-04-28T21:59:27.198Z,14.10
2018-04-28T22:01:54.721Z,14.10
2018-04-28T22:04:22.141Z,14.10
2018-04-28T22:06:49.672Z,14.10
2018-04-28T22:09:17.137Z,14.00
2018-04-28T22:11:44.608Z,14.00
2018-04-28T22:14:12.022Z,14.00
2018-04-28T22:16:40.954Z,13.80
2018-04-28T22:19:10.126Z,13.90
2018-04-28T22:21:37.558Z,13.80
2018-04-28T22:24:04.982Z,13.90
2018-04-28T22:26:32.498Z,13.80
2018-04-28T22:28:59.946Z,13.80
2018-04-28T22:31:28.159Z,13.80
2018-04-28T22:33:55.591Z,13.80
2018-04-28T22:36:23.814Z,13.80
2018-04-28T22:38:51.286Z,13.80
2018-04-28T22:41:18.699Z,13.80
2018-04-28T22:43:46.126Z,13.80
2018-04-28T22:46:13.554Z,13.80
2018-04-28T22:48:41.755Z,13.80
2018-04-28T22:51:09.934Z,13.70
2018-04-28T22:53:38.134Z,13.70
2018-04-28T22:56:05.550Z,13.70
2018-04-28T22:58:32.987Z,13.70
2018-04-28T23:01:00.454Z,13.70
2018-04-28T23:03:27.877Z,13.70
2018-04-28T23:05:56.062Z,13.60
2018-04-28T23:08:23.491Z,13.50
2018-04-28T23:10:50.906Z,13.50
2018-04-28T23:13:18.420Z,13.50
2018-04-28T23:15:45.846Z,13.50
2018-04-28T23:18:13.274Z,13.50
2018-04-28T23:20:40.698Z,13.50
2018-04-28T23:23:08.891Z,13.40
2018-04-28T23:25:37.078Z,13.30
2018-04-28T23:28:05.276Z,13.30
2018-04-28T23:30:32.755Z,13.30
2018-04-28T23:33:00.179Z,13.30
2018-04-28T23:35:27.606Z,13.30
2018-04-28T23:37:55.070Z,13.20
2018-04-28T23:40:22.486Z,13.20
2018-04-28T23:42:50.010Z,13.20
2018-04-28T23:45:17.427Z,13.10
2018-04-28T23:47:44.842Z,13.10
2018-04-28T23:50:12.315Z,13.10
2018-04-28T23:52:39.726Z,13.00
2018-04-28T23:55:07.155Z,13.00
2018-04-28T23:57:34.623Z,12.90
